Time;durP1;ratioP1;P1;durP2;ratioP2;P2;SDS_P1;SDS_P2;PMS_P1;PMS_P2;Temp;Humidity;BMP_temperature;BMP_pressure;BME280_temperature;BME280_humidity;BME280_pressure;Samples;Min_cycle;Max_cycle;Signal;HPM_P1;HPM_P2
2023/09/09 00:00:48;;;;;;;7.82;4.70;;;20.20;99.90;;;;;;4990861;28;20030;-54
2023/09/09 00:03:14;;;;;;;7.53;4.80;;;20.10;99.90;;;;;;4990820;28;20406;-51
2023/09/09 00:05:40;;;;;;;7.65;4.43;;;20.10;99.90;;;;;;4990790;28;20575;-51
2023/09/09 00:08:05;;;;;;;7.70;5.00;;;20.00;99.90;;;;;;4990358;28;20039;-52
2023/09/09 00:10:35;;;;;;;7.63;4.60;;;20.00;99.90;;;;;;4990614;28;20018;-50
2023/09/09 00:13:05;;;;;;;6.07;4.43;;;20.00;99.90;;;;;;4990690;28;20038;-53
2023/09/09 00:15:31;;;;;;;6.25;3.92;;;20.00;99.90;;;;;;4990896;28;20058;-53
2023/09/09 00:17:57;;;;;;;7.70;4.35;;;20.00;99.90;;;;;;4989206;28;20033;-54
2023/09/09 00:20:36;;;;;;;9.15;5.18;;;20.00;99.90;;;;;;4990390;28;20026;-46
2023/09/09 00:23:12;;;;;;;7.10;4.05;;;20.00;99.90;;;;;;4990557;28;20070;-49
2023/09/09 00:25:40;;;;;;;7.53;4.18;;;20.00;99.90;;;;;;4990697;28;20046;-51
2023/09/09 00:28:06;;;;;;;6.35;3.72;;;20.00;99.90;;;;;;4990492;28;20019;-53
2023/09/09 00:30:32;;;;;;;7.28;4.55;;;20.00;99.90;;;;;;4990595;28;20023;-52
2023/09/09 00:32:58;;;;;;;5.95;4.38;;;20.10;99.90;;;;;;4990302;28;20036;-52
2023/09/09 00:35:24;;;;;;;6.90;4.30;;;20.10;99.90;;;;;;4989145;28;20036;-55
2023/09/09 00:37:50;;;;;;;6.72;4.57;;;20.10;99.90;;;;;;4993414;28;20026;-46
2023/09/09 00:40:16;;;;;;;6.63;4.10;;;20.00;99.90;;;;;;4994382;28;20022;-53
2023/09/09 00:42:41;;;;;;;6.28;4.10;;;20.00;99.90;;;;;;4994320;28;20041;-52
2023/09/09 00:45:07;;;;;;;5.63;4.05;;;20.10;99.90;;;;;;4994160;28;20387;-52
2023/09/09 00:47:37;;;;;;;7.18;3.90;;;20.10;99.90;;;;;;4994016;28;20045;-51
2023/09/09 00:50:05;;;;;;;6.90;4.35;;;20.00;99.90;;;;;;4993954;28;20177;-51
2023/09/09 00:52:31;;;;;;;5.80;3.75;;;20.00;99.90;;;;;;4993992;28;20486;-58
2023/09/09 00:54:58;;;;;;;6.82;4.50;;;20.00;99.90;;;;;;4993787;28;20022;-55
2023/09/09 00:57:25;;;;;;;5.93;4.00;;;19.90;99.90;;;;;;4993913;28;20113;-50
2023/09/09 00:59:51;;;;;;;5.85;3.95;;;19.90;99.90;;;;;;4992846;28;20035;-52
2023/09/09 01:02:16;;;;;;;5.85;3.58;;;19.80;99.90;;;;;;4993169;28;20033;-54
2023/09/09 01:04:42;;;;;;;7.47;4.53;;;19.80;99.90;;;;;;4993748;28;20061;-48
2023/09/09 01:07:08;;;;;;;6.95;4.88;;;19.80;99.90;;;;;;4993619;28;20031;-48
2023/09/09 01:09:36;;;;;;;6.30;3.60;;;19.80;99.90;;;;;;4993359;28;20079;-52
2023/09/09 01:12:03;;;;;;;6.13;3.83;;;19.70;99.90;;;;;;4993223;28;20499;-48
2023/09/09 01:14:29;;;;;;;6.32;4.22;;;19.70;99.90;;;;;;4993477;28;20031;-47
2023/09/09 01:16:56;;;;;;;8.30;4.00;;;19.70;99.90;;;;;;4993269;28;20037;-47
2023/09/09 01:19:27;;;;;;;7.07;4.40;;;19.70;99.90;;;;;;4993026;28;20025;-54
2023/09/09 01:22:00;;;;;;;6.30;4.18;;;19.70;99.90;;;;;;4993314;28;20052;-51
2023/09/09 01:24:25;;;;;;;5.80;3.83;;;19.60;99.90;;;;;;4993011;28;20081;-51
2023/09/09 01:26:51;;;;;;;5.97;3.72;;;19.50;99.90;;;;;;4993247;28;20018;-54
2023/09/09 01:29:17;;;;;;;6.97;4.00;;;19.50;99.90;;;;;;4992965;28;20038;-50
2023/09/09 01:31:42;;;;;;;6.25;4.25;;;19.50;99.90;;;;;;4991606;28;20408;-51
2023/09/09 01:34:08;;;;;;;4.97;3.78;;;19.50;99.90;;;;;;4993195;28;20118;-49
2023/09/09 01:36:33;;;;;;;5.45;3.90;;;19.50;99.90;;;;;;4992817;28;20029;-52
2023/09/09 01:38:59;;;;;;;8.20;4.55;;;19.40;99.90;;;;;;4993300;28;20414;-53
2023/09/09 01:41:24;;;;;;;6.40;4.05;;;19.50;99.90;;;;;;4992820;28;20479;-49
2023/09/09 01:43:50;;;;;;;6.25;3.83;;;19.40;99.90;;;;;;4993104;28;20085;-53
2023/09/09 01:46:16;;;;;;;5.65;3.85;;;19.40;99.90;;;;;;4992825;28;20068;-52
2023/09/09 01:48:41;;;;;;;7.40;4.43;;;19.40;99.90;;;;;;4992658;28;20026;-51
2023/09/09 01:51:07;;;;;;;7.10;4.25;;;19.40;99.90;;;;;;4992840;28;20033;-50
2023/09/09 01:53:32;;;;;;;6.40;4.05;;;19.40;99.90;;;;;;4992761;28;20180;-50
2023/09/09 01:55:58;;;;;;;5.68;4.20;;;19.30;99.90;;;;;;4992824;28;20061;-51
2023/09/09 01:58:24;;;;;;;7.13;4.50;;;19.30;99.90;;;;;;4991321;28;20018;-53
2023/09/09 02:00:49;;;;;;;6.20;4.38;;;19.30;99.90;;;;;;4992583;28;20027;-50
2023/09/09 02:03:15;;;;;;;5.97;4.05;;;19.30;99.90;;;;;;4992269;28;20018;-50
2023/09/09 02:05:41;;;;;;;7.15;4.55;;;19.40;99.90;;;;;;4992295;28;20233;-46
2023/09/09 02:08:07;;;;;;;6.10;4.25;;;19.30;99.90;;;;;;4992294;28;20117;-54
2023/09/09 02:10:32;;;;;;;5.97;4.28;;;19.30;99.90;;;;;;4992553;28;20037;-47
2023/09/09 02:12:58;;;;;;;6.38;4.18;;;19.30;99.90;;;;;;4991914;28;20073;-56
2023/09/09 02:15:24;;;;;;;8.48;4.20;;;19.20;99.90;;;;;;4992205;28;20112;-48
2023/09/09 02:17:50;;;;;;;7.28;4.45;;;19.30;99.90;;;;;;4992032;28;20058;-56
2023/09/09 02:20:15;;;;;;;6.15;4.28;;;19.20;99.90;;;;;;4992142;28;20031;-46
2023/09/09 02:22:41;;;;;;;6.18;4.25;;;19.20;99.90;;;;;;4991918;28;20119;-53
2023/09/09 02:25:08;;;;;;;5.90;3.75;;;19.20;99.90;;;;;;4992162;28;20094;-53
2023/09/09 02:27:34;;;;;;;6.32;4.07;;;19.20;99.90;;;;;;4992224;28;20113;-51
2023/09/09 02:30:01;;;;;;;7.13;4.00;;;19.20;99.90;;;;;;4992098;28;20109;-47
2023/09/09 02:32:27;;;;;;;6.00;3.90;;;19.10;99.90;;;;;;4992261;28;20096;-45
2023/09/09 02:34:53;;;;;;;6.72;4.20;;;19.10;99.90;;;;;;4991826;28;20471;-51
2023/09/09 02:37:20;;;;;;;5.68;3.80;;;19.10;99.90;;;;;;4992089;28;20037;-49
2023/09/09 02:39:47;;;;;;;7.38;4.28;;;19.10;99.90;;;;;;4991695;28;20101;-46
2023/09/09 02:42:14;;;;;;;6.90;4.22;;;19.10;99.90;;;;;;4991935;28;20031;-55
2023/09/09 02:44:41;;;;;;;5.65;4.20;;;19.10;99.90;;;;;;4991823;28;20503;-49
2023/09/09 02:47:08;;;;;;;6.05;4.03;;;19.10;99.90;;;;;;4991895;28;20088;-49
2023/09/09 02:49:37;;;;;;;5.30;3.95;;;19.10;99.90;;;;;;4991908;28;20113;-52
2023/09/09 02:52:04;;;;;;;7.55;4.47;;;19.00;99.90;;;;;;4991443;28;20123;-46
2023/09/09 02:54:29;;;;;;;5.40;3.60;;;19.00;99.90;;;;;;4991309;28;20530;-52
2023/09/09 02:56:55;;;;;;;6.47;4.38;;;19.00;99.90;;;;;;4990684;28;20062;-45
2023/09/09 02:59:25;;;;;;;6.75;4.32;;;19.00;99.90;;;;;;4990659;28;20039;-45
2023/09/09 03:01:50;;;;;;;6.57;4.45;;;19.00;99.90;;;;;;4991207;28;20479;-48
2023/09/09 03:04:17;;;;;;;5.90;4.10;;;19.00;99.90;;;;;;4991343;28;20034;-52
2023/09/09 03:06:42;;;;;;;7.55;4.60;;;19.00;99.90;;;;;;4991203;28;20030;-58
2023/09/09 03:09:09;;;;;;;6.15;4.38;;;19.00;99.90;;;;;;4991162;28;20121;-56
2023/09/09 03:11:34;;;;;;;6.13;4.13;;;18.90;99.90;;;;;;4990795;28;20019;-46
2023/09/09 03:14:00;;;;;;;6.43;3.72;;;18.90;99.90;;;;;;4990530;28;20407;-51
2023/09/09 03:16:25;;;;;;;6.03;4.00;;;18.90;99.90;;;;;;4990966;28;20121;-52
2023/09/09 03:18:51;;;;;;;8.15;4.43;;;18.90;99.90;;;;;;4991014;28;20030;-48
2023/09/09 03:21:16;;;;;;;6.32;4.30;;;18.80;99.90;;;;;;4990716;28;20033;-45
2023/09/09 03:23:42;;;;;;;8.52;4.10;;;18.80;99.90;;;;;;4990923;28;20491;-50
2023/09/09 03:26:09;;;;;;;7.78;4.03;;;18.70;99.90;;;;;;4990962;28;20077;-51
2023/09/09 03:28:35;;;;;;;5.55;3.78;;;18.70;99.90;;;;;;4991034;28;20030;-54
2023/09/09 03:31:01;;;;;;;6.68;4.07;;;18.70;99.90;;;;;;4990622;28;20383;-47
2023/09/09 03:33:27;;;;;;;6.20;3.78;;;18.60;99.90;;;;;;4990933;28;20105;-50
2023/09/09 03:35:53;;;;;;;5.80;3.58;;;18.50;99.90;;;;;;4990822;28;20018;-52
2023/09/09 03:38:19;;;;;;;6.43;3.92;;;18.50;99.90;;;;;;4991294;28;20487;-50
2023/09/09 03:40:44;;;;;;;6.88;4.22;;;18.50;99.90;;;;;;4991760;28;20434;-47
2023/09/09 03:43:13;;;;;;;6.95;3.90;;;18.40;99.90;;;;;;4991452;28;20098;-49
2023/09/09 03:45:39;;;;;;;6.57;3.80;;;18.50;99.90;;;;;;4991630;28;20104;-50
2023/09/09 03:48:05;;;;;;;5.68;3.55;;;18.40;99.90;;;;;;4990804;28;20479;-48
2023/09/09 03:50:31;;;;;;;5.28;3.67;;;18.40;99.90;;;;;;4991245;28;20038;-54
2023/09/09 03:52:57;;;;;;;6.20;3.97;;;18.40;99.90;;;;;;4990392;28;20076;-47
2023/09/09 03:55:23;;;;;;;5.57;3.83;;;18.40;99.90;;;;;;4990665;28;20026;-45
2023/09/09 03:57:49;;;;;;;8.15;3.63;;;18.40;99.90;;;;;;4990518;28;20033;-48
2023/09/09 04:00:15;;;;;;;6.82;4.25;;;18.40;99.90;;;;;;4990517;28;20030;-56
2023/09/09 04:02:40;;;;;;;5.85;3.83;;;18.40;99.90;;;;;;4990557;28;20023;-48
2023/09/09 04:05:07;;;;;;;6.35;3.60;;;18.40;99.90;;;;;;4989985;28;20098;-55
2023/09/09 04:07:35;;;;;;;5.15;3.47;;;18.40;99.90;;;;;;4990349;28;20372;-47
2023/09/09 04:10:05;;;;;;;6.72;4.10;;;18.40;99.90;;;;;;4990715;28;20030;-54
2023/09/09 04:12:31;;;;;;;8.35;4.25;;;18.40;99.90;;;;;;4994287;28;20031;-50
2023/09/09 04:14:57;;;;;;;7.22;4.35;;;18.40;99.90;;;;;;4994471;28;20034;-45
2023/09/09 04:17:22;;;;;;;7.45;4.10;;;18.40;99.90;;;;;;4994353;28;20030;-47
2023/09/09 04:19:48;;;;;;;5.55;3.70;;;18.40;99.90;;;;;;4994503;28;20093;-54
2023/09/09 04:22:13;;;;;;;7.18;4.40;;;18.40;99.90;;;;;;4993983;28;20038;-45
2023/09/09 04:24:39;;;;;;;6.50;4.43;;;18.40;99.90;;;;;;4994473;28;20514;-47
2023/09/09 04:27:05;;;;;;;7.10;4.47;;;18.40;99.90;;;;;;4994417;28;20447;-49
2023/09/09 04:29:30;;;;;;;6.85;4.97;;;18.40;99.90;;;;;;4993847;28;20421;-57
2023/09/09 04:31:57;;;;;;;10.63;4.60;;;18.40;99.90;;;;;;4994200;28;20110;-49
2023/09/09 04:34:23;;;;;;;5.72;4.20;;;18.50;99.90;;;;;;4994139;28;20364;-49
2023/09/09 04:36:48;;;;;;;6.40;4.20;;;18.40;99.90;;;;;;4994017;28;20122;-50
2023/09/09 04:39:14;;;;;;;5.97;4.47;;;18.40;99.90;;;;;;4994143;28;20034;-49
2023/09/09 04:41:40;;;;;;;6.43;4.55;;;18.40;99.90;;;;;;4994180;28;20015;-56
2023/09/09 04:44:06;;;;;;;5.88;3.85;;;18.40;99.90;;;;;;4993969;28;20435;-47
2023/09/09 04:46:31;;;;;;;6.30;4.30;;;18.40;99.90;;;;;;4993894;28;20018;-51
2023/09/09 04:48:57;;;;;;;7.25;4.60;;;18.40;99.90;;;;;;4994072;28;20500;-48
2023/09/09 04:51:23;;;;;;;7.15;4.20;;;18.40;99.90;;;;;;4993849;28;20027;-50
2023/09/09 04:53:50;;;;;;;9.65;4.45;;;18.30;99.90;;;;;;4993822;28;20054;-58
2023/09/09 04:56:15;;;;;;;6.53;4.50;;;18.30;99.90;;;;;;4993861;28;20479;-49
2023/09/09 04:58:41;;;;;;;5.80;4.05;;;18.30;99.90;;;;;;4993556;28;20027;-54
2023/09/09 05:01:07;;;;;;;6.07;3.70;;;18.30;99.90;;;;;;4993081;28;20556;-51
2023/09/09 05:03:32;;;;;;;6.05;4.18;;;18.20;99.90;;;;;;4993506;28;20022;-49
2023/09/09 05:05:58;;;;;;;6.60;4.18;;;18.20;99.90;;;;;;4993456;28;20101;-51
2023/09/09 05:08:23;;;;;;;8.70;4.60;;;18.20;99.90;;;;;;4993424;28;20088;-53
2023/09/09 05:10:49;;;;;;;7.03;4.82;;;18.20;99.90;;;;;;4993545;28;20396;-46
2023/09/09 05:13:15;;;;;;;6.90;4.30;;;18.20;99.90;;;;;;4993818;28;20045;-50
2023/09/09 05:15:40;;;;;;;7.28;4.72;;;18.20;99.90;;;;;;4992255;28;20117;-54
2023/09/09 05:18:06;;;;;;;7.60;4.70;;;18.20;99.90;;;;;;4993371;28;20394;-48
2023/09/09 05:20:31;;;;;;;7.28;4.63;;;18.30;99.90;;;;;;4993376;28;20034;-48
2023/09/09 05:22:57;;;;;;;9.10;4.50;;;18.20;99.90;;;;;;4992383;28;20034;-46
2023/09/09 05:25:23;;;;;;;6.75;4.60;;;18.30;99.90;;;;;;4990985;28;20749;-48
2023/09/09 05:27:48;;;;;;;6.78;4.07;;;18.30;99.90;;;;;;4996176;28;20023;-50
2023/09/09 05:30:14;;;;;;;7.75;4.82;;;18.30;99.90;;;;;;4992991;28;20475;-54
2023/09/09 05:32:40;;;;;;;6.93;4.70;;;18.30;99.90;;;;;;4992725;28;20038;-52
2023/09/09 05:35:06;;;;;;;7.13;4.18;;;18.30;99.90;;;;;;4993108;28;20037;-49
2023/09/09 05:37:32;;;;;;;6.95;4.35;;;18.30;99.90;;;;;;4992722;28;20061;-55
2023/09/09 05:39:58;;;;;;;8.32;4.38;;;18.30;99.90;;;;;;4993180;28;20542;-53
2023/09/09 05:42:23;;;;;;;7.03;4.50;;;18.20;99.90;;;;;;4993119;28;20066;-54
2023/09/09 05:44:49;;;;;;;7.40;4.40;;;18.20;99.90;;;;;;4992848;28;20397;-52
2023/09/09 05:47:15;;;;;;;6.25;4.40;;;18.10;99.90;;;;;;4993058;28;20391;-54
2023/09/09 05:49:40;;;;;;;6.57;4.75;;;18.20;99.90;;;;;;4992846;28;20019;-45
2023/09/09 05:52:07;;;;;;;7.25;4.35;;;18.20;99.90;;;;;;4992479;28;20121;-54
2023/09/09 05:54:32;;;;;;;6.13;4.38;;;18.30;99.90;;;;;;4992794;28;20117;-45
2023/09/09 05:56:58;;;;;;;6.85;4.25;;;18.30;99.90;;;;;;4992863;28;20029;-55
2023/09/09 05:59:24;;;;;;;5.88;3.97;;;18.40;99.90;;;;;;4992936;28;20034;-57
2023/09/09 06:01:50;;;;;;;7.47;4.47;;;18.40;99.90;;;;;;4992310;28;20022;-54
2023/09/09 06:04:16;;;;;;;5.97;4.13;;;18.40;99.90;;;;;;4975162;28;20092;-51
2023/09/09 06:06:45;;;;;;;7.72;3.90;;;18.40;99.90;;;;;;4992362;28;20026;-52
2023/09/09 06:09:11;;;;;;;6.30;4.40;;;18.40;99.90;;;;;;4992555;28;20146;-52
2023/09/09 06:11:37;;;;;;;6.35;4.40;;;18.40;99.90;;;;;;4992227;28;20041;-53
2023/09/09 06:14:02;;;;;;;9.73;4.20;;;18.40;99.90;;;;;;4992033;28;20042;-47
2023/09/09 06:16:28;;;;;;;6.65;4.03;;;18.40;99.90;;;;;;4992238;28;20050;-57
2023/09/09 06:18:54;;;;;;;6.05;4.18;;;18.40;99.90;;;;;;4992126;28;20062;-49
2023/09/09 06:21:20;;;;;;;5.85;4.10;;;18.40;99.90;;;;;;4992326;28;20468;-47
2023/09/09 06:23:46;;;;;;;7.07;4.45;;;18.40;99.90;;;;;;4974845;28;20468;-46
2023/09/09 06:26:12;;;;;;;6.10;4.32;;;18.50;99.90;;;;;;4991990;28;20101;-51
2023/09/09 06:28:38;;;;;;;5.68;3.80;;;18.60;99.90;;;;;;4992280;28;20113;-44
2023/09/09 06:31:03;;;;;;;7.20;3.95;;;18.70;99.90;;;;;;4992250;28;20065;-46
2023/09/09 06:33:29;;;;;;;6.65;4.22;;;18.70;99.90;;;;;;4991312;28;20057;-51
2023/09/09 06:35:55;;;;;;;6.28;3.95;;;18.80;99.90;;;;;;4991199;28;20018;-53
2023/09/09 06:38:21;;;;;;;6.28;4.18;;;19.00;99.90;;;;;;4991809;28;20022;-46
2023/09/09 06:40:47;;;;;;;7.20;3.92;;;19.00;99.90;;;;;;4991829;28;20026;-51
2023/09/09 06:43:16;;;;;;;6.13;4.35;;;19.10;99.90;;;;;;4991997;28;20085;-51
2023/09/09 06:45:41;;;;;;;8.45;4.45;;;19.20;99.90;;;;;;4991792;28;20109;-52
2023/09/09 06:48:07;;;;;;;5.68;3.97;;;19.30;99.90;;;;;;4991442;28;20105;-49
2023/09/09 06:50:33;;;;;;;7.18;4.18;;;19.50;99.90;;;;;;4973918;28;20037;-52
2023/09/09 06:52:58;;;;;;;9.35;4.97;;;19.60;99.90;;;;;;4991664;28;20101;-54
2023/09/09 06:55:24;;;;;;;6.47;4.70;;;19.70;99.90;;;;;;4991937;28;20026;-49
2023/09/09 06:57:49;;;;;;;7.85;5.07;;;19.70;99.90;;;;;;4991552;28;20062;-47
2023/09/09 07:00:16;;;;;;;5.25;3.97;;;19.70;99.90;;;;;;4991524;28;20034;-48
2023/09/09 07:02:41;;;;;;;6.18;4.70;;;19.80;99.90;;;;;;4974213;28;20348;-48
2023/09/09 07:05:07;;;;;;;10.00;4.30;;;19.90;99.90;;;;;;4991264;28;20025;-50
2023/09/09 07:07:33;;;;;;;6.35;4.18;;;20.20;99.90;;;;;;4991202;28;20022;-50
2023/09/09 07:09:59;;;;;;;5.95;4.15;;;20.50;99.90;;;;;;4991256;28;20060;-47
2023/09/09 07:12:25;;;;;;;6.53;4.43;;;21.00;99.90;;;;;;4991339;28;20566;-51
2023/09/09 07:14:50;;;;;;;6.05;4.60;;;21.50;99.90;;;;;;4991396;28;20029;-48
2023/09/09 07:17:16;;;;;;;5.38;3.85;;;22.00;99.90;;;;;;4991005;28;20044;-48
2023/09/09 07:19:42;;;;;;;9.38;4.10;;;22.40;99.90;;;;;;4991003;28;20057;-54
2023/09/09 07:22:07;;;;;;;5.05;3.80;;;22.90;99.90;;;;;;4991040;28;20026;-45
2023/09/09 07:24:33;;;;;;;5.85;4.07;;;23.30;99.90;;;;;;4991044;28;20030;-55
2023/09/09 07:27:04;;;;;;;5.90;4.18;;;23.70;99.90;;;;;;4991124;28;20019;-51
2023/09/09 07:29:30;;;;;;;5.43;3.50;;;24.10;99.90;;;;;;4991061;28;20018;-50
2023/09/09 07:31:55;;;;;;;5.80;4.30;;;24.60;99.90;;;;;;4990844;28;20049;-51
2023/09/09 07:34:21;;;;;;;4.95;3.80;;;24.90;99.90;;;;;;4991081;28;20018;-52
2023/09/09 07:36:47;;;;;;;6.78;4.70;;;25.20;99.90;;;;;;4991000;28;20034;-50
2023/09/09 07:39:14;;;;;;;6.28;4.82;;;25.60;99.90;;;;;;4990904;28;20037;-46
2023/09/09 07:41:39;;;;;;;8.05;4.40;;;25.90;99.90;;;;;;4990732;28;20018;-49
2023/09/09 07:44:06;;;;;;;6.97;4.93;;;26.20;99.90;;;;;;4990761;28;20442;-47
2023/09/09 07:46:32;;;;;;;7.55;4.68;;;26.40;99.90;;;;;;4990299;28;20125;-53
2023/09/09 07:48:57;;;;;;;6.43;4.88;;;26.70;99.90;;;;;;4990709;28;20121;-51
2023/09/09 07:51:23;;;;;;;8.52;5.45;;;26.80;99.90;;;;;;4990594;28;20030;-49
2023/09/09 07:53:49;;;;;;;7.55;5.22;;;27.10;99.90;;;;;;4990574;28;20061;-47
2023/09/09 07:56:15;;;;;;;8.88;6.18;;;27.50;99.90;;;;;;4990606;28;20049;-54
2023/09/09 07:58:40;;;;;;;9.88;5.78;;;27.80;99.90;;;;;;4990383;28;20082;-53
2023/09/09 08:01:07;;;;;;;8.00;5.72;;;28.00;99.90;;;;;;4990373;28;20031;-54
2023/09/09 08:03:33;;;;;;;8.77;5.05;;;28.20;99.90;;;;;;4990681;28;20097;-53
2023/09/09 08:06:06;;;;;;;7.50;5.25;;;28.40;99.90;;;;;;4990612;28;20137;-46
2023/09/09 08:08:32;;;;;;;8.05;5.15;;;28.70;99.90;;;;;;4990541;28;20053;-52
2023/09/09 08:10:58;;;;;;;7.45;4.97;;;28.90;99.90;;;;;;4990547;28;20023;-45
2023/09/09 08:13:27;;;;;;;5.72;4.03;;;29.20;99.90;;;;;;4990268;28;20368;-48
2023/09/09 08:15:52;;;;;;;;;;;29.40;99.90;;;;;;4990963;28;20069;-50
2023/09/09 08:18:18;;;;;;;6.50;4.05;;;29.00;99.90;;;;;;4989832;28;19914;-49
2023/09/09 08:20:44;;;;;;;4.53;3.42;;;28.90;99.90;;;;;;4972570;28;20117;-47
2023/09/09 08:23:09;;;;;;;6.22;4.00;;;29.00;99.90;;;;;;4990399;28;20038;-48
2023/09/09 08:25:35;;;;;;;5.60;3.80;;;29.20;99.90;;;;;;4990034;28;20101;-50
2023/09/09 08:28:03;;;;;;;5.47;3.10;;;29.30;99.90;;;;;;4989872;28;20157;-50
2023/09/09 08:30:29;;;;;;;5.07;3.38;;;29.70;99.90;;;;;;4990089;28;20117;-51
2023/09/09 08:32:55;;;;;;;5.47;3.58;;;30.00;99.90;;;;;;4989969;28;20039;-48
2023/09/09 08:35:22;;;;;;;4.38;3.10;;;30.40;99.90;;;;;;4990006;28;20019;-49
2023/09/09 08:37:48;;;;;;;4.82;3.60;;;30.70;99.90;;;;;;4990005;28;20026;-50
2023/09/09 08:40:14;;;;;;;5.35;3.70;;;30.70;99.90;;;;;;4990198;28;20499;-52
2023/09/09 08:42:56;;;;;;;5.95;3.53;;;30.90;99.90;;;;;;4990085;28;20026;-48
2023/09/09 08:45:45;;;;;;;5.88;3.60;;;31.00;99.90;;;;;;4979576;28;20033;-46
2023/09/09 08:48:16;;;;;;;5.80;3.63;;;31.30;99.90;;;;;;4989707;28;20022;-57
2023/09/09 08:50:42;;;;;;;5.20;3.30;;;31.60;99.90;;;;;;4990216;28;20045;-50
2023/09/09 08:53:12;;;;;;;5.43;3.10;;;31.80;99.90;;;;;;4989706;28;20403;-45
2023/09/09 08:55:39;;;;;;;5.38;3.60;;;32.10;99.90;;;;;;4989937;28;20503;-47
2023/09/09 08:58:05;;;;;;;5.35;3.55;;;32.50;99.90;;;;;;4991039;28;20049;-49
2023/09/09 09:00:35;;;;;;;5.03;3.30;;;32.90;99.90;;;;;;4993628;28;20097;-48
2023/09/09 09:03:02;;;;;;;5.45;3.50;;;33.10;99.10;;;;;;4987796;28;20110;-53
2023/09/09 09:05:35;;;;;;;4.85;3.20;;;33.20;99.10;;;;;;4993308;28;20092;-49
2023/09/09 09:08:01;;;;;;;5.70;3.45;;;33.30;98.90;;;;;;4993067;28;20050;-45
2023/09/09 09:10:27;;;;;;;4.90;3.22;;;33.50;99.10;;;;;;4993422;28;20029;-49
2023/09/09 09:12:53;;;;;;;4.10;3.10;;;33.60;98.60;;;;;;4992931;28;20454;-50
2023/09/09 09:15:20;;;;;;;4.65;2.90;;;33.80;98.10;;;;;;4993249;28;20026;-50
2023/09/09 09:17:46;;;;;;;5.17;3.10;;;34.00;97.20;;;;;;4993101;28;20038;-47
2023/09/09 09:20:27;;;;;;;4.05;2.88;;;34.10;96.90;;;;;;4993057;28;20026;-48
2023/09/09 09:23:14;;;;;;;5.10;3.40;;;34.30;96.00;;;;;;4992742;28;20030;-50
2023/09/09 09:25:45;;;;;;;4.55;2.92;;;34.50;97.20;;;;;;4993086;28;20101;-52
2023/09/09 09:28:14;;;;;;;5.05;3.03;;;34.70;97.00;;;;;;4993037;28;20032;-44
2023/09/09 09:30:41;;;;;;;4.35;2.70;;;34.80;95.60;;;;;;4992686;28;20029;-52
2023/09/09 09:33:06;;;;;;;4.47;2.92;;;35.00;95.20;;;;;;4992977;28;20115;-44
2023/09/09 09:35:34;;;;;;;3.80;2.85;;;35.10;95.20;;;;;;4992608;28;20101;-45
2023/09/09 09:38:09;;;;;;;4.57;3.20;;;35.20;94.90;;;;;;4992535;28;20026;-47
2023/09/09 09:40:35;;;;;;;5.35;2.90;;;35.20;93.80;;;;;;4991343;28;20142;-51
2023/09/09 09:43:01;;;;;;;3.13;2.33;;;35.40;93.00;;;;;;4993011;28;20030;-51
2023/09/09 09:45:31;;;;;;;5.40;2.78;;;35.60;93.20;;;;;;4992917;28;20479;-48
2023/09/09 09:47:58;;;;;;;5.45;3.40;;;35.50;92.00;;;;;;4993111;28;20118;-49
2023/09/09 09:50:31;;;;;;;5.28;3.00;;;35.40;90.90;;;;;;4992974;28;20541;-47
2023/09/09 09:52:58;;;;;;;4.20;2.70;;;35.60;91.70;;;;;;4992571;28;20117;-47
2023/09/09 09:55:24;;;;;;;4.57;3.05;;;35.80;91.90;;;;;;4990954;28;20054;-47
2023/09/09 09:57:58;;;;;;;4.10;2.65;;;35.90;91.10;;;;;;4991936;28;20030;-47
2023/09/09 10:00:25;;;;;;;4.40;3.03;;;36.10;91.70;;;;;;4992090;28;20069;-46
2023/09/09 10:02:53;;;;;;;5.03;2.92;;;36.10;90.60;;;;;;4992783;28;20019;-48
2023/09/09 10:05:22;;;;;;;5.10;2.88;;;36.00;87.30;;;;;;4992823;28;20014;-45
2023/09/09 10:07:53;;;;;;;3.95;2.90;;;35.90;86.90;;;;;;4992316;28;20030;-46
2023/09/09 10:10:22;;;;;;;4.07;2.70;;;35.80;86.40;;;;;;4992720;28;20029;-44
2023/09/09 10:13:18;;;;;;;4.82;2.72;;;35.90;83.20;;;;;;4992597;28;20037;-47
2023/09/09 10:15:47;;;;;;;5.90;2.80;;;35.60;86.10;;;;;;4992204;28;20072;-50
2023/09/09 10:18:13;;;;;;;4.75;2.80;;;35.80;84.90;;;;;;4992295;28;20026;-48
2023/09/09 10:20:39;;;;;;;3.75;2.75;;;35.80;86.10;;;;;;4992479;28;20023;-49
2023/09/09 10:23:05;;;;;;;4.43;3.03;;;36.00;81.90;;;;;;4992251;28;20046;-51
2023/09/09 10:25:32;;;;;;;4.10;2.80;;;35.90;83.10;;;;;;4992137;28;20026;-45
2023/09/09 10:27:58;;;;;;;4.25;2.65;;;35.80;84.20;;;;;;4991674;28;20411;-50
2023/09/09 10:30:24;;;;;;;4.55;2.70;;;35.70;84.00;;;;;;4991747;28;20038;-50
2023/09/09 10:32:50;;;;;;;4.10;3.05;;;35.60;80.80;;;;;;4991350;28;20562;-43
2023/09/09 10:35:18;;;;;;;3.53;2.60;;;35.80;80.90;;;;;;4991862;28;20060;-52
2023/09/09 10:37:46;;;;;;;4.18;2.97;;;35.80;80.30;;;;;;4991565;28;20034;-44
2023/09/09 10:40:13;;;;;;;3.20;2.40;;;35.80;81.10;;;;;;4991440;28;20026;-47
2023/09/09 10:42:40;;;;;;;4.03;2.63;;;35.90;80.10;;;;;;4991241;28;20034;-49
2023/09/09 10:45:29;;;;;;;2.95;2.30;;;36.20;81.40;;;;;;4991946;28;20034;-49
2023/09/09 10:48:06;;;;;;;3.33;2.42;;;36.20;79.00;;;;;;4991341;28;20035;-45
2023/09/09 10:50:45;;;;;;;4.28;2.92;;;35.90;79.20;;;;;;4991760;28;20468;-45
2023/09/09 10:53:29;;;;;;;3.80;2.67;;;35.90;78.40;;;;;;4991716;28;20090;-50
2023/09/09 10:55:56;;;;;;;5.60;2.72;;;35.90;80.10;;;;;;4991700;28;20022;-51
2023/09/09 10:58:33;;;;;;;3.85;2.60;;;36.00;80.90;;;;;;4991417;28;20018;-46
2023/09/09 11:01:02;;;;;;;4.10;2.60;;;36.30;81.20;;;;;;4991648;28;20026;-51
2023/09/09 11:03:38;;;;;;;3.58;2.60;;;36.60;81.30;;;;;;4991451;28;20058;-46
2023/09/09 11:06:11;;;;;;;4.43;2.63;;;36.90;78.60;;;;;;4991552;28;20463;-48
2023/09/09 11:08:46;;;;;;;5.40;2.70;;;36.80;78.70;;;;;;4991164;28;20438;-44
2023/09/09 11:11:14;;;;;;;4.20;2.60;;;36.70;77.20;;;;;;4991624;28;20023;-48
2023/09/09 11:13:53;;;;;;;3.80;2.33;;;36.60;77.60;;;;;;4991154;28;20041;-45
2023/09/09 11:16:27;;;;;;;3.95;2.63;;;36.90;82.10;;;;;;4980362;28;20082;-48
2023/09/09 11:18:53;;;;;;;3.88;2.55;;;36.90;76.80;;;;;;4990594;28;20115;-48
2023/09/09 11:21:22;;;;;;;3.45;2.40;;;36.90;77.00;;;;;;4990517;28;20080;-44
2023/09/09 11:23:48;;;;;;;4.35;2.47;;;36.80;79.20;;;;;;4990937;28;20460;-48
2023/09/09 11:44:07;;;;;;;7.38;2.70;;;36.70;76.50;;;;;;5114114;27;20606;-50
2023/09/09 11:46:43;;;;;;;5.57;2.72;;;36.30;78.80;;;;;;5117796;27;20038;-50
2023/09/09 11:49:10;;;;;;;4.47;2.60;;;36.30;79.10;;;;;;5127502;28;20027;-47
2023/09/09 11:51:35;;;;;;;4.80;2.50;;;36.30;79.10;;;;;;5116529;27;20028;-59
2023/09/09 11:54:02;;;;;;;3.40;2.50;;;36.40;78.60;;;;;;5112045;28;20029;-54
2023/09/09 11:56:29;;;;;;;5.05;2.60;;;36.60;79.00;;;;;;5127406;27;20449;-50
2023/09/09 11:58:55;;;;;;;4.75;2.67;;;36.50;76.70;;;;;;5115301;28;20532;-50
2023/09/09 12:01:22;;;;;;;5.43;2.78;;;35.90;77.00;;;;;;5115929;28;20020;-48
2023/09/09 12:03:49;;;;;;;4.43;2.72;;;35.90;76.80;;;;;;5108053;28;20058;-52
2023/09/09 12:06:16;;;;;;;3.85;2.60;;;36.10;78.10;;;;;;5125548;28;20099;-48
2023/09/09 12:08:42;;;;;;;5.43;3.22;;;36.20;77.10;;;;;;5116659;27;20031;-53
2023/09/09 12:11:09;;;;;;;4.00;2.22;;;36.10;77.20;;;;;;5110196;27;20073;-45
2023/09/09 12:13:36;;;;;;;4.68;2.22;;;36.10;76.00;;;;;;5113390;28;20039;-45
2023/09/09 12:16:03;;;;;;;3.10;2.35;;;35.90;75.50;;;;;;5115907;28;20376;-51
2023/09/09 12:18:29;;;;;;;3.20;2.05;;;35.90;78.50;;;;;;5110363;28;20027;-48
2023/09/09 12:21:03;;;;;;;3.80;2.45;;;35.90;75.40;;;;;;5114558;28;20360;-51
2023/09/09 12:23:40;;;;;;;4.18;2.10;;;35.70;74.10;;;;;;5104853;28;20066;-53
2023/09/09 12:26:14;;;;;;;4.18;2.15;;;35.60;75.10;;;;;;5107070;28;20138;-48
2023/09/09 12:28:43;;;;;;;4.05;2.20;;;35.40;76.30;;;;;;5113442;28;20059;-48
2023/09/09 12:31:10;;;;;;;7.55;2.42;;;35.50;79.50;;;;;;5120550;28;20036;-46
2023/09/09 12:33:42;;;;;;;3.53;2.15;;;35.50;74.90;;;;;;5110535;27;20475;-55
2023/09/09 12:36:21;;;;;;;5.22;2.47;;;35.40;73.40;;;;;;5120807;27;20033;-48
2023/09/09 12:38:49;;;;;;;5.00;2.72;;;35.30;77.70;;;;;;5101174;28;20054;-50
2023/09/09 12:41:21;;;;;;;;;;;35.30;77.60;;;;;;5114626;28;20028;-47
2023/09/09 12:43:48;;;;;;;5.90;2.10;;;35.30;76.40;;;;;;5106741;28;19916;-53
2023/09/09 12:46:16;;;;;;;6.07;2.50;;;35.30;76.70;;;;;;5102737;28;20016;-49
2023/09/09 12:49:00;;;;;;;;;;;35.30;76.50;;;;;;5112904;28;20024;-45
2023/09/09 12:51:32;;;;;;;5.78;2.20;;;35.50;75.00;;;;;;5110939;28;20283;-45
2023/09/09 12:53:58;;;;;;;3.45;2.45;;;35.40;74.50;;;;;;5106549;28;20043;-52
2023/09/09 12:56:25;;;;;;;3.90;2.30;;;35.40;75.90;;;;;;5103648;28;20019;-53
2023/09/09 12:58:51;;;;;;;6.57;2.50;;;35.40;77.40;;;;;;5095813;28;20047;-53
2023/09/09 13:01:17;;;;;;;4.82;2.38;;;35.40;77.30;;;;;;5092773;28;20019;-47
2023/09/09 13:03:43;;;;;;;4.25;2.20;;;35.20;73.60;;;;;;5092074;28;20028;-51
2023/09/09 13:06:09;;;;;;;5.00;2.58;;;34.90;75.70;;;;;;5098723;28;20016;-55